Latest Weather Observations for Applethorpe

IDQ60801

Issued at 10:31 pm EST Sunday 14 February 2016 (issued every 30 minutes, with the page automatically refreshed every 10 minutes)

About weather observations | Map of weather stations | Latest weather observations for QLD | Other Formats
Station Details ID: 041175 Name: APPLETHORPE Lat: -28.62 Lon: 151.95 Height: 871.6 m
Data from the previous 72 hours. | See also: Recent months at Applethorpe
Date/Time
EST
Temp
°C
App
Temp
°C
Dew
Point
Rel
Hum
%
Delta-T
°C
Wind Press
QNH
hPa
Press
MSL
hPa
Rain
since 9 am
mm
Dir
 
Spd
km/h
Gust
km/h
Spd
kts
Gust
kts
14/10:30pm 14.6 15.1 11.6 82 1.7 CALM 0 0 0 0 1014.2 1009.5 0.0
14/10:00pm 14.9 14.8 10.9 77 2.2 WSW 2 4 1 2 1014.4 1009.8 0.0
14/09:30pm 15.5 15.7 11.8 78 2.1 NE 2 4 1 2 1014.3 1009.6 0.0
14/09:00pm 16.1 16.2 11.5 74 2.6 NNE 2 6 1 3 1014.3 1009.6 0.0
14/08:30pm 16.5 16.0 10.8 69 3.2 SSW 4 6 2 3 1014.1 1009.4 0.0
14/08:00pm 17.4 17.9 11.6 69 3.3 CALM 0 0 0 0 1014.1 1009.4 0.0
14/07:30pm 18.8 19.1 11.0 60 4.4 CALM 0 0 0 0 1014.0 1009.3 0.0
14/07:00pm 20.9 20.4 10.9 52 5.7 E 4 6 2 3 1013.8 1009.1 0.0
14/06:30pm 23.6 22.7 9.4 40 8.0 ESE 4 7 2 4 1013.5 1008.8 0.0
14/06:00pm 25.6 23.8 8.0 32 9.8 E 7 15 4 8 1013.1 1008.4 0.0
14/05:30pm 26.9 25.2 8.5 31 10.4 ESE 7 13 4 7 1012.7 1008.0 0.0
14/05:00pm 27.7 25.3 7.2 27 11.4 ESE 9 17 5 9 1012.5 1007.8 0.0
14/04:30pm 28.3 25.9 6.8 25 11.9 ESE 9 17 5 9 1012.0 1007.3 0.0
14/04:00pm 28.7 26.1 6.1 24 12.4 SE 9 20 5 11 1011.9 1007.2 0.0
14/03:30pm 28.9 26.9 7.3 25 12.1 ESE 7 15 4 8 1011.8 1007.1 0.0
14/03:00pm 29.5 27.5 7.2 24 12.5 SE 7 17 4 9 1011.7 1007.0 0.0
14/02:30pm 29.1 26.7 7.1 25 12.3 E 9 17 5 9 1011.7 1007.0 0.0
14/02:00pm 28.9 27.4 9.1 29 11.4 E 7 15 4 8 1011.9 1007.2 0.0
14/01:30pm 28.5 26.8 9.8 31 10.9 E 9 17 5 9 1012.0 1007.3 0.0
14/01:00pm 27.7 25.7 8.8 30 10.8 ENE 9 17 5 9 1012.3 1007.5 0.0
14/12:30pm 27.3 25.0 5.9 25 11.6 ESE 7 19 4 10 1012.6 1007.9 0.0
14/12:00pm 26.8 24.1 5.6 25 11.4 SE 9 19 5 10 1012.8 1008.1 0.0
14/11:30am 26.8 24.8 7.0 28 10.9 E 7 13 4 7 1013.0 1008.3 0.0
14/11:00am 26.7 24.2 4.5 24 11.7 ESE 7 15 4 8 1013.3 1008.6 0.0
14/10:30am 25.6 22.9 3.8 24 11.3 SE 7 13 4 7 1013.7 1009.0 0.0
14/10:00am 24.8 21.7 1.2 21 11.6 SSE 7 15 4 8 1013.8 1009.1 0.0
14/09:30am 23.8 20.4 1.7 23 10.9 SE 9 17 5 9 1013.8 1009.1 0.0
14/09:00am 22.7 21.7 8.9 41 7.7 SE 4 9 2 5 1013.9 1009.2 0.0
14/08:30am 20.7 19.8 7.7 43 7.0 SSE 2 6 1 3 1013.9 1009.2 0.0
14/08:00am 19.4 18.5 10.7 57 4.9 E 6 11 3 6 1014.0 1009.3 0.0
14/07:30am 17.1 17.0 12.0 72 2.9 ESE 4 9 2 5 1014.0 1009.3 0.0
14/07:00am 15.4 15.5 12.6 83 1.6 E 4 9 2 5 1014.0 1009.3 0.0
14/06:30am 13.9 13.5 12.5 91 0.8 ENE 6 9 3 5 1013.7 1009.0 0.0
14/06:00am 12.7 12.6 12.0 95 0.4 E 4 7 2 4 1013.3 1008.6 0.0
14/05:30am 13.0 13.0 12.3 95 0.4 ESE 4 7 2 4 1013.2 1008.5 0.0
14/05:00am 13.6 13.6 12.5 93 0.6 ESE 4 13 2 7 1013.1 1008.4 0.0
14/04:30am 13.9 13.6 12.7 92 0.7 E 6 9 3 5 1012.9 1008.2 0.0
14/04:00am 14.1 13.7 12.9 92 0.7 E 7 13 4 7 1012.7 1008.0 0.0
14/03:30am 14.0 13.8 13.1 94 0.5 E 6 11 3 6 1012.8 1008.1 0.0
14/03:00am 13.6 13.8 12.9 95 0.4 ENE 4 6 2 3 1012.9 1008.2 0.0
14/02:30am 14.0 14.3 13.3 96 0.4 E 4 9 2 5 1013.0 1008.3 0.0
14/02:00am 13.7 13.9 13.0 96 0.4 ENE 4 6 2 3 1013.2 1008.5 0.0
14/01:30am 14.4 14.7 13.5 94 0.5 E 4 9 2 5 1013.5 1008.8 0.0
14/01:00am 15.0 15.1 13.8 92 0.7 E 6 11 3 6 1013.8 1009.1 0.0
14/12:30am 15.4 15.3 13.9 91 0.9 E 7 13 4 7 1014.2 1009.5 0.0
14/12:00am 15.8 15.3 13.9 88 1.1 ESE 9 17 5 9 1014.6 1010.0 0.0
 
Date/Time
EST
Temp
°C
App
Temp
°C
Dew
Point
Rel
Hum
%
Delta-T
°C
Wind Press
QNH
hPa
Press
MSL
hPa
Rain
since 9 am
mm
Dir
 
Spd
km/h
Gust
km/h
Spd
kts
Gust
kts
13/11:30pm 16.3 16.3 14.1 87 1.3 ESE 7 15 4 8 1015.0 1010.3 0.0
13/11:00pm 16.5 16.5 14.3 87 1.3 ESE 7 13 4 7 1015.0 1010.3 0.0
13/10:30pm 16.5 16.8 14.5 88 1.2 SE 6 9 3 5 1015.3 1010.6 0.0
13/10:00pm 16.7 17.2 15.0 90 1.0 ESE 6 9 3 5 1015.5 1010.9 0.0
13/09:30pm 17.0 17.4 15.2 89 1.1 ESE 7 17 4 9 1015.5 1010.9 0.0
13/09:00pm 17.2 17.7 15.6 90 1.0 E 7 11 4 6 1015.6 1011.0 0.0
13/08:30pm 17.4 18.6 15.8 90 1.0 E 4 6 2 3 1015.5 1010.9 0.0
13/08:00pm 18.0 18.7 15.7 86 1.4 E 6 13 3 7 1015.3 1010.6 0.0
13/07:30pm 18.7 19.9 15.8 83 1.8 E 4 6 2 3 1015.2 1010.5 0.0
13/07:00pm 19.8 19.8 15.1 74 2.9 ESE 9 17 5 9 1015.0 1010.3 0.0
13/06:30pm 20.8 20.7 13.8 64 4.2 ESE 7 15 4 8 1014.6 1010.0 0.0
13/06:00pm 22.0 21.5 13.7 59 5.0 ESE 9 17 5 9 1014.4 1009.8 0.0
13/05:30pm 22.8 21.4 13.5 55 5.6 E 13 22 7 12 1014.2 1009.5 0.0
13/05:00pm 23.7 22.6 13.2 51 6.3 ESE 11 24 6 13 1013.9 1009.2 0.0
13/04:30pm 23.9 22.6 12.5 49 6.8 ESE 11 26 6 14 1013.9 1009.2 0.0
13/04:00pm 24.4 23.0 12.3 46 7.2 ESE 11 20 6 11 1013.9 1009.2 0.0
13/03:30pm 24.3 22.2 11.1 43 7.7 ESE 13 24 7 13 1014.0 1009.3 0.0
13/03:00pm 24.6 23.3 12.4 46 7.3 E 11 20 6 11 1014.2 1009.5 0.0
13/02:30pm 24.8 24.0 13.0 47 7.1 E 9 19 5 10 1014.4 1009.8 0.0
13/02:00pm 24.2 23.6 13.5 51 6.5 E 9 28 5 15 1014.9 1010.2 0.0
13/01:30pm 24.6 23.9 14.2 52 6.4 ESE 11 20 6 11 1015.1 1010.4 0.0
13/01:00pm 24.2 23.9 14.4 54 6.0 E 9 22 5 12 1015.4 1010.7 0.0
13/12:30pm 22.9 21.8 13.2 54 5.8 E 11 24 6 13 1015.6 1011.0 0.0
13/12:00pm 23.1 22.3 14.1 57 5.5 ESE 11 19 6 10 1015.8 1011.2 0.0
13/11:30am 22.6 21.2 13.3 55 5.6 ESE 13 20 7 11 1016.1 1011.4 0.0
13/11:00am 22.6 21.2 13.5 56 5.5 ESE 13 24 7 13 1016.0 1011.3 0.0
13/10:30am 22.1 21.0 13.0 56 5.4 ESE 11 26 6 14 1016.3 1011.6 0.0
13/10:00am 21.7 20.8 13.7 60 4.8 E 11 22 6 12 1016.6 1012.0 0.0
13/09:30am 20.7 19.7 13.3 62 4.4 ESE 11 24 6 13 1016.6 1012.0 0.0
13/09:00am 20.4 19.3 13.1 63 4.3 ESE 11 24 6 13 1016.6 1012.0 0.0
13/08:30am 19.6 18.5 13.2 66 3.8 E 11 24 6 13 1016.6 1012.0 0.0
13/08:00am 18.4 17.3 13.1 71 3.1 ENE 11 24 6 13 1016.6 1012.0 0.0
13/07:30am 17.2 16.2 13.3 78 2.3 ESE 11 24 6 13 1016.6 1012.0 0.0
13/07:00am 16.4 15.0 13.5 83 1.7 ESE 13 19 7 10 1016.5 1011.9 0.0
13/06:30am 16.1 15.1 13.5 84 1.5 E 11 26 6 14 1016.3 1011.6 0.0
13/06:00am 15.6 15.0 13.5 87 1.2 ESE 9 19 5 10 1016.1 1011.4 0.0
13/05:30am 15.3 14.2 13.2 87 1.2 ESE 11 20 6 11 1015.7 1011.1 0.0
13/05:00am 15.4 14.3 13.2 87 1.3 ESE 11 24 6 13 1015.4 1010.7 0.0
13/04:30am 15.4 14.6 13.0 85 1.4 ESE 9 17 5 9 1015.2 1010.5 0.0
13/04:00am 15.5 14.9 13.4 87 1.2 ESE 9 24 5 13 1015.3 1010.6 0.0
13/03:30am 15.0 14.6 13.1 88 1.1 ESE 7 15 4 8 1015.3 1010.6 0.0
13/03:00am 15.5 14.8 13.3 87 1.3 ESE 9 20 5 11 1015.4 1010.7 0.0
13/02:30am 15.6 14.1 13.2 86 1.4 ESE 13 28 7 15 1015.5 1010.9 0.0
13/02:00am 15.0 14.8 13.1 88 1.1 ESE 6 9 3 5 1015.8 1011.2 0.0
13/01:30am 15.2 14.7 12.6 84 1.5 ESE 7 15 4 8 1016.0 1011.3 0.0
13/01:00am 15.7 13.8 12.9 83 1.6 ESE 15 28 8 15 1016.3 1011.6 0.0
13/12:30am 15.8 14.3 13.0 83 1.6 ESE 13 26 7 14 1016.7 1012.1 0.0
13/12:00am 15.9 14.4 13.0 83 1.7 ESE 13 26 7 14 1017.0 1012.4 0.0
 
Date/Time
EST
Temp
°C
App
Temp
°C
Dew
Point
Rel
Hum
%
Delta-T
°C
Wind Press
QNH
hPa
Press
MSL
hPa
Rain
since 9 am
mm
Dir
 
Spd
km/h
Gust
km/h
Spd
kts
Gust
kts
12/11:30pm 15.8 14.4 13.4 86 1.4 ESE 13 24 7 13 1017.3 1012.6 0.0
12/11:00pm 15.8 15.1 13.2 84 1.5 ESE 9 20 5 11 1017.5 1012.8 0.0
12/10:30pm 16.0 15.9 13.8 87 1.3 ESE 7 19 4 10 1017.6 1013.0 0.0
12/10:00pm 15.7 15.5 13.5 87 1.3 ESE 7 15 4 8 1017.8 1013.2 0.0
12/09:30pm 16.1 15.5 13.4 84 1.6 E 9 17 5 9 1017.8 1013.2 0.0
12/09:00pm 16.6 16.3 13.3 81 1.9 E 7 15 4 8 1017.9 1013.3 0.0
12/08:30pm 17.1 17.0 13.9 81 1.9 ENE 7 15 4 8 1018.0 1013.4 0.0
12/08:00pm 17.6 17.5 13.9 79 2.2 E 7 15 4 8 1017.9 1013.3 0.0
12/07:30pm 17.8 18.3 14.1 79 2.2 E 4 7 2 4 1017.8 1013.2 0.0
12/07:00pm 18.7 18.6 13.8 73 2.9 E 7 13 4 7 1017.6 1013.0 0.0
12/06:30pm 19.8 19.4 14.1 69 3.4 ESE 9 20 5 11 1017.3 1012.6 0.0
12/06:00pm 21.3 20.9 14.0 63 4.4 ESE 9 17 5 9 1016.8 1012.2 0.0
12/05:30pm 21.9 20.5 13.4 58 5.1 ESE 13 26 7 14 1016.5 1011.9 0.0
12/05:00pm 22.8 22.1 13.1 54 5.8 ESE 9 22 5 12 1016.3 1011.6 0.0
12/04:30pm 23.6 22.4 11.7 47 7.0 ESE 9 20 5 11 1016.2 1011.5 0.0
12/04:00pm 23.6 22.0 11.7 47 7.0 ESE 11 20 6 11 1016.3 1011.6 0.0
12/03:30pm 23.8 22.4 12.1 48 6.9 ESE 11 26 6 14 1016.4 1011.7 0.0
12/03:00pm 23.5 22.3 11.7 47 6.9 ESE 9 19 5 10 1016.3 1011.6 0.0
12/02:30pm 24.3 22.9 12.2 46 7.2 ESE 11 17 6 9 1016.4 1011.7 0.0
12/02:00pm 24.1 22.3 12.1 47 7.1 ESE 13 24 7 13 1016.7 1012.1 0.0
12/01:30pm 24.2 22.8 12.2 47 7.1 ESE 11 20 6 11 1016.8 1012.2 0.0
12/01:00pm 23.8 21.8 11.5 46 7.2 ESE 13 20 7 11 1016.9 1012.3 0.0
12/12:30pm 22.6 21.1 13.1 55 5.7 E 13 20 7 11 1017.3 1012.6 0.0
12/12:00pm 22.0 20.8 12.7 55 5.5 ESE 11 22 6 12 1017.4 1012.7 0.0
12/11:30am 22.6 21.5 13.1 55 5.7 ESE 11 24 6 13 1017.6 1013.0 0.0
12/11:00am 21.6 20.3 13.6 60 4.8 ESE 13 22 7 12 1017.8 1013.2 0.0
12/10:30am 22.4 20.9 13.2 56 5.5 E 13 24 7 13 1017.9 1013.3 0.0
12/10:00am 21.4 20.4 13.4 60 4.8 E 11 26 6 14 1018.1 1013.5 0.0
12/09:30am 20.4 18.9 13.1 63 4.3 E 13 24 7 13 1018.1 1013.5 0.0
12/09:00am 19.6 18.7 13.7 68 3.5 ESE 11 26 6 14 1018.1 1013.5 0.0
12/08:30am 18.8 17.3 13.0 69 3.4 ESE 13 26 7 14 1018.2 1013.6 0.0
12/08:00am 18.0 17.0 13.4 74 2.7 ESE 11 22 6 12 1018.1 1013.5 0.0
12/07:30am 17.2 16.2 13.3 78 2.3 ESE 11 22 6 12 1017.9 1013.3 0.0
12/07:00am 16.2 14.8 13.3 83 1.7 ESE 13 22 7 12 1017.9 1013.3 0.0
12/06:30am 15.6 15.4 13.5 87 1.2 E 7 19 4 10 1017.4 1012.7 0.0
12/06:00am 15.0 14.3 13.3 89 1.0 E 9 15 5 8 1017.0 1012.4 0.0
12/05:30am 15.2 14.5 13.3 88 1.1 E 9 19 5 10 1016.8 1012.2 0.0
12/05:00am 15.5 15.5 13.6 88 1.1 E 6 13 3 7 1016.7 1012.1 0.0
12/04:30am 15.3 15.1 13.6 90 1.0 ESE 7 15 4 8 1016.5 1011.9 0.0
12/04:00am 15.5 15.5 13.6 88 1.1 ESE 6 13 3 7 1016.6 1012.0 0.0
12/03:30am 15.5 15.6 13.8 90 1.0 ESE 6 11 3 6 1016.6 1012.0 0.0
12/03:00am 15.8 15.7 13.8 88 1.2 E 7 15 4 8 1016.6 1012.0 0.0
12/02:30am 16.0 15.4 13.6 86 1.4 ESE 9 19 5 10 1017.0 1012.4 0.0
12/02:00am 16.4 16.4 14.2 87 1.3 ESE 7 17 4 9 1017.0 1012.4 0.0
12/01:30am 16.5 16.2 14.5 88 1.2 E 9 15 5 8 1017.0 1012.4 0.0
12/01:00am 16.6 16.3 14.4 87 1.3 ESE 9 20 5 11 1017.2 1012.5 0.0
12/12:30am 16.6 16.7 14.4 87 1.3 ESE 7 15 4 8 1017.4 1012.7 0.0
12/12:00am 16.6 16.9 14.6 88 1.2 E 6 9 3 5 1017.7 1013.1 0.0
 
Date/Time
EST
Temp
°C
App
Temp
°C
Dew
Point
Rel
Hum
%
Delta-T
°C
Wind Press
QNH
hPa
Press
MSL
hPa
Rain
since 9 am
mm
Dir
 
Spd
km/h
Gust
km/h
Spd
kts
Gust
kts
11/11:30pm 16.6 16.8 14.6 88 1.2 E 7 15 4 8 1017.9 1013.3 0.0
11/11:00pm 16.7 17.0 14.9 89 1.1 E 7 13 4 7 1017.9 1013.3 0.0

Other Formats:

Comma delimited format used in spreadsheet applications
http://www.bom.gov.au/fwo/IDQ60801/IDQ60801.94553.axf

JavaScript Object Notation format (JSON) in row-major order
http://www.bom.gov.au/fwo/IDQ60801/IDQ60801.94553.json